KHKS/HKS METAR and TAF weather

Enter ICAO airport designator
Station Type Date Time Source
KHKS METAR 2019/10/23 07:53 UTC NOAA

KHKS 230753Z AUTO 00000KT 10SM CLR 08/06 A3017 RMK AO2 SLP209 T00780061


Station Type Date Time Source
KHKS Decoded METAR 2019/10/23 07:53 UTC NOAA

HAWKINS FIELD, MS, United States (KHKS) 32-20N 090-13W 108M
Oct 23, 2019 - 03:53 AM EDT / 2019.10.23 0753 UTC
Wind: Calm:0
Visibility: 10 mile(s):0
Sky conditions: clear
Temperature: 46.0 F (7.8 C)
Dew Point: 43.0 F (6.1 C)
Relative Humidity: 88%
Pressure (altimeter): 30.17 in. Hg (1021 hPa)
ob: KHKS 230753Z AUTO 00000KT 10SM CLR 08/06 A3017 RMK AO2 SLP209 T00780061
cycle: 8

Station Type Date Time Source
KHKS TAF 2019/10/23 06:22 UTC NOAA

TAF KHKS 230520Z 2306/2406 18005KT P6SM SKC

Example: see airport list